sensor_id;sensor_type;location;lat;lon;timestamp;P1;durP1;ratioP1;P2;durP2;ratioP2
40503;SDS011;42292;49.048;8.374;2022-10-12T00:02:02;12.40;;;6.15;;
40503;SDS011;42292;49.048;8.374;2022-10-12T00:04:30;12.50;;;6.07;;
40503;SDS011;42292;49.048;8.374;2022-10-12T00:07:00;12.77;;;5.93;;
40503;SDS011;42292;49.048;8.374;2022-10-12T00:09:26;15.15;;;6.15;;
40503;SDS011;42292;49.048;8.374;2022-10-12T00:11:52;12.93;;;5.90;;
40503;SDS011;42292;49.048;8.374;2022-10-12T00:14:17;10.80;;;5.60;;
40503;SDS011;42292;49.048;8.374;2022-10-12T00:16:45;14.45;;;5.72;;
40503;SDS011;42292;49.048;8.374;2022-10-12T00:19:11;11.27;;;5.38;;
40503;SDS011;42292;49.048;8.374;2022-10-12T00:21:37;11.85;;;4.75;;
40503;SDS011;42292;49.048;8.374;2022-10-12T00:24:03;16.33;;;5.57;;
40503;SDS011;42292;49.048;8.374;2022-10-12T00:26:29;12.40;;;4.60;;
40503;SDS011;42292;49.048;8.374;2022-10-12T00:29:01;11.83;;;4.43;;
40503;SDS011;42292;49.048;8.374;2022-10-12T00:31:27;12.00;;;4.50;;
40503;SDS011;42292;49.048;8.374;2022-10-12T00:33:58;10.57;;;4.40;;
40503;SDS011;42292;49.048;8.374;2022-10-12T00:36:28;10.98;;;4.13;;
40503;SDS011;42292;49.048;8.374;2022-10-12T00:38:56;9.82;;;3.67;;
40503;SDS011;42292;49.048;8.374;2022-10-12T00:41:26;9.90;;;4.35;;
40503;SDS011;42292;49.048;8.374;2022-10-12T00:43:55;13.77;;;4.33;;
40503;SDS011;42292;49.048;8.374;2022-10-12T00:46:40;10.55;;;4.25;;
40503;SDS011;42292;49.048;8.374;2022-10-12T00:51:42;11.27;;;4.53;;
40503;SDS011;42292;49.048;8.374;2022-10-12T00:54:13;12.45;;;4.10;;
40503;SDS011;42292;49.048;8.374;2022-10-12T00:56:43;12.70;;;4.15;;
40503;SDS011;42292;49.048;8.374;2022-10-12T00:59:19;10.45;;;4.07;;
40503;SDS011;42292;49.048;8.374;2022-10-12T01:01:59;12.60;;;4.27;;
40503;SDS011;42292;49.048;8.374;2022-10-12T01:04:27;9.45;;;3.80;;
40503;SDS011;42292;49.048;8.374;2022-10-12T01:06:58;9.27;;;4.13;;
40503;SDS011;42292;49.048;8.374;2022-10-12T01:09:24;10.00;;;4.00;;
40503;SDS011;42292;49.048;8.374;2022-10-12T01:11:51;14.67;;;4.50;;
40503;SDS011;42292;49.048;8.374;2022-10-12T01:14:19;10.07;;;4.05;;
40503;SDS011;42292;49.048;8.374;2022-10-12T01:22:06;13.93;;;4.27;;
40503;SDS011;42292;49.048;8.374;2022-10-12T01:24:40;10.35;;;3.90;;
40503;SDS011;42292;49.048;8.374;2022-10-12T01:36:56;10.43;;;4.00;;
40503;SDS011;42292;49.048;8.374;2022-10-12T01:42:06;10.02;;;3.50;;
40503;SDS011;42292;49.048;8.374;2022-10-12T01:44:38;13.30;;;3.95;;
40503;SDS011;42292;49.048;8.374;2022-10-12T01:47:03;9.45;;;3.83;;
40503;SDS011;42292;49.048;8.374;2022-10-12T01:49:30;11.87;;;4.13;;
40503;SDS011;42292;49.048;8.374;2022-10-12T01:55:01;11.27;;;4.30;;
40503;SDS011;42292;49.048;8.374;2022-10-12T02:00:13;11.30;;;4.03;;
40503;SDS011;42292;49.048;8.374;2022-10-12T02:05:45;11.13;;;4.13;;
40503;SDS011;42292;49.048;8.374;2022-10-12T02:08:24;11.32;;;3.83;;
40503;SDS011;42292;49.048;8.374;2022-10-12T02:10:56;11.07;;;4.03;;
40503;SDS011;42292;49.048;8.374;2022-10-12T02:13:47;12.65;;;4.10;;
40503;SDS011;42292;49.048;8.374;2022-10-12T02:16:21;10.20;;;4.35;;
40503;SDS011;42292;49.048;8.374;2022-10-12T02:18:54;11.02;;;4.07;;
40503;SDS011;42292;49.048;8.374;2022-10-12T02:21:33;11.18;;;4.60;;
40503;SDS011;42292;49.048;8.374;2022-10-12T02:24:06;12.98;;;4.20;;
40503;SDS011;42292;49.048;8.374;2022-10-12T02:26:36;11.60;;;4.20;;
40503;SDS011;42292;49.048;8.374;2022-10-12T02:29:06;9.88;;;3.95;;
40503;SDS011;42292;49.048;8.374;2022-10-12T02:34:13;11.15;;;4.20;;
40503;SDS011;42292;49.048;8.374;2022-10-12T02:39:47;11.95;;;3.90;;
40503;SDS011;42292;49.048;8.374;2022-10-12T02:42:40;9.88;;;4.28;;
40503;SDS011;42292;49.048;8.374;2022-10-12T02:45:12;10.45;;;3.83;;
40503;SDS011;42292;49.048;8.374;2022-10-12T02:47:41;10.38;;;4.30;;
40503;SDS011;42292;49.048;8.374;2022-10-12T02:50:08;9.30;;;4.03;;
40503;SDS011;42292;49.048;8.374;2022-10-12T02:52:35;11.68;;;4.15;;
40503;SDS011;42292;49.048;8.374;2022-10-12T02:55:03;10.38;;;3.95;;
40503;SDS011;42292;49.048;8.374;2022-10-12T02:57:29;10.15;;;4.65;;
40503;SDS011;42292;49.048;8.374;2022-10-12T02:59:55;11.07;;;4.00;;
40503;SDS011;42292;49.048;8.374;2022-10-12T03:02:20;13.40;;;4.28;;
40503;SDS011;42292;49.048;8.374;2022-10-12T03:04:48;10.80;;;4.35;;
40503;SDS011;42292;49.048;8.374;2022-10-12T03:07:14;10.63;;;3.77;;
40503;SDS011;42292;49.048;8.374;2022-10-12T03:09:42;11.73;;;3.93;;
40503;SDS011;42292;49.048;8.374;2022-10-12T03:12:07;10.43;;;3.92;;
40503;SDS011;42292;49.048;8.374;2022-10-12T03:14:33;11.55;;;4.00;;
40503;SDS011;42292;49.048;8.374;2022-10-12T03:16:59;11.83;;;4.67;;
40503;SDS011;42292;49.048;8.374;2022-10-12T03:19:25;11.00;;;4.07;;
40503;SDS011;42292;49.048;8.374;2022-10-12T03:21:50;11.00;;;3.93;;
40503;SDS011;42292;49.048;8.374;2022-10-12T03:24:16;9.55;;;3.67;;
40503;SDS011;42292;49.048;8.374;2022-10-12T03:26:44;11.23;;;4.32;;
40503;SDS011;42292;49.048;8.374;2022-10-12T03:29:09;12.43;;;4.47;;
40503;SDS011;42292;49.048;8.374;2022-10-12T03:31:37;10.20;;;4.88;;
40503;SDS011;42292;49.048;8.374;2022-10-12T03:34:08;14.93;;;4.45;;
40503;SDS011;42292;49.048;8.374;2022-10-12T03:36:33;16.93;;;5.17;;
40503;SDS011;42292;49.048;8.374;2022-10-12T03:38:59;13.73;;;5.17;;
40503;SDS011;42292;49.048;8.374;2022-10-12T03:41:24;10.18;;;4.28;;
40503;SDS011;42292;49.048;8.374;2022-10-12T03:43:52;11.75;;;4.28;;
40503;SDS011;42292;49.048;8.374;2022-10-12T03:46:20;10.48;;;5.15;;
40503;SDS011;42292;49.048;8.374;2022-10-12T03:48:46;11.67;;;4.50;;
40503;SDS011;42292;49.048;8.374;2022-10-12T03:51:11;14.47;;;5.50;;
40503;SDS011;42292;49.048;8.374;2022-10-12T03:53:37;12.77;;;5.00;;
40503;SDS011;42292;49.048;8.374;2022-10-12T03:56:02;12.15;;;4.32;;
40503;SDS011;42292;49.048;8.374;2022-10-12T03:58:28;14.05;;;4.85;;
40503;SDS011;42292;49.048;8.374;2022-10-12T04:00:56;14.07;;;5.18;;
40503;SDS011;42292;49.048;8.374;2022-10-12T04:03:24;17.15;;;7.47;;
40503;SDS011;42292;49.048;8.374;2022-10-12T04:05:55;12.30;;;5.10;;
40503;SDS011;42292;49.048;8.374;2022-10-12T04:08:22;11.20;;;5.22;;
40503;SDS011;42292;49.048;8.374;2022-10-12T04:10:51;27.55;;;17.60;;
40503;SDS011;42292;49.048;8.374;2022-10-12T04:13:16;19.83;;;10.75;;
40503;SDS011;42292;49.048;8.374;2022-10-12T04:15:44;13.00;;;4.85;;
40503;SDS011;42292;49.048;8.374;2022-10-12T04:18:17;11.70;;;5.70;;
40503;SDS011;42292;49.048;8.374;2022-10-12T04:20:45;12.57;;;5.20;;
40503;SDS011;42292;49.048;8.374;2022-10-12T04:23:11;10.52;;;4.38;;
40503;SDS011;42292;49.048;8.374;2022-10-12T04:25:37;13.15;;;4.88;;
40503;SDS011;42292;49.048;8.374;2022-10-12T04:28:06;12.38;;;4.80;;
40503;SDS011;42292;49.048;8.374;2022-10-12T04:30:32;11.25;;;4.53;;
40503;SDS011;42292;49.048;8.374;2022-10-12T04:32:58;15.02;;;5.10;;
40503;SDS011;42292;49.048;8.374;2022-10-12T04:35:28;12.02;;;5.13;;
40503;SDS011;42292;49.048;8.374;2022-10-12T04:37:58;11.32;;;4.10;;
40503;SDS011;42292;49.048;8.374;2022-10-12T04:40:26;10.10;;;3.78;;
40503;SDS011;42292;49.048;8.374;2022-10-12T04:42:54;14.30;;;4.43;;
40503;SDS011;42292;49.048;8.374;2022-10-12T04:45:20;10.48;;;4.30;;
40503;SDS011;42292;49.048;8.374;2022-10-12T04:47:46;11.63;;;4.47;;
40503;SDS011;42292;49.048;8.374;2022-10-12T04:50:14;7.88;;;4.13;;
40503;SDS011;42292;49.048;8.374;2022-10-12T04:52:40;9.73;;;4.27;;
40503;SDS011;42292;49.048;8.374;2022-10-12T04:55:07;11.60;;;5.10;;
40503;SDS011;42292;49.048;8.374;2022-10-12T04:57:33;12.60;;;4.73;;
40503;SDS011;42292;49.048;8.374;2022-10-12T05:00:01;13.63;;;6.70;;
40503;SDS011;42292;49.048;8.374;2022-10-12T05:02:27;18.33;;;10.77;;
40503;SDS011;42292;49.048;8.374;2022-10-12T05:04:52;17.75;;;6.82;;
40503;SDS011;42292;49.048;8.374;2022-10-12T05:07:18;9.60;;;4.28;;
40503;SDS011;42292;49.048;8.374;2022-10-12T05:09:47;12.90;;;5.35;;
40503;SDS011;42292;49.048;8.374;2022-10-12T05:12:13;10.13;;;3.77;;
40503;SDS011;42292;49.048;8.374;2022-10-12T05:14:41;8.80;;;4.00;;
40503;SDS011;42292;49.048;8.374;2022-10-12T05:17:10;12.15;;;4.40;;
40503;SDS011;42292;49.048;8.374;2022-10-12T05:19:36;12.52;;;5.00;;
40503;SDS011;42292;49.048;8.374;2022-10-12T05:22:02;14.93;;;5.13;;
40503;SDS011;42292;49.048;8.374;2022-10-12T05:24:27;12.00;;;4.68;;
40503;SDS011;42292;49.048;8.374;2022-10-12T05:26:55;12.43;;;4.90;;
40503;SDS011;42292;49.048;8.374;2022-10-12T05:29:23;11.25;;;4.75;;
40503;SDS011;42292;49.048;8.374;2022-10-12T05:31:49;14.73;;;5.10;;
40503;SDS011;42292;49.048;8.374;2022-10-12T05:34:14;11.83;;;4.30;;
40503;SDS011;42292;49.048;8.374;2022-10-12T05:36:42;13.38;;;5.20;;
40503;SDS011;42292;49.048;8.374;2022-10-12T05:39:10;12.82;;;6.03;;
40503;SDS011;42292;49.048;8.374;2022-10-12T05:41:38;10.10;;;4.40;;
40503;SDS011;42292;49.048;8.374;2022-10-12T05:44:03;12.07;;;5.10;;
40503;SDS011;42292;49.048;8.374;2022-10-12T05:46:29;14.53;;;4.53;;
40503;SDS011;42292;49.048;8.374;2022-10-12T05:48:57;10.05;;;4.75;;
40503;SDS011;42292;49.048;8.374;2022-10-12T05:51:23;14.57;;;4.47;;
40503;SDS011;42292;49.048;8.374;2022-10-12T05:53:50;11.05;;;4.70;;
40503;SDS011;42292;49.048;8.374;2022-10-12T05:56:16;12.00;;;4.85;;
40503;SDS011;42292;49.048;8.374;2022-10-12T05:58:44;15.00;;;4.53;;
40503;SDS011;42292;49.048;8.374;2022-10-12T06:01:12;12.77;;;4.80;;
40503;SDS011;42292;49.048;8.374;2022-10-12T06:03:38;15.60;;;5.22;;
40503;SDS011;42292;49.048;8.374;2022-10-12T06:06:08;12.00;;;5.23;;
40503;SDS011;42292;49.048;8.374;2022-10-12T06:08:34;13.73;;;5.00;;
40503;SDS011;42292;49.048;8.374;2022-10-12T06:11:00;11.53;;;4.30;;
40503;SDS011;42292;49.048;8.374;2022-10-12T06:13:28;11.10;;;4.63;;
40503;SDS011;42292;49.048;8.374;2022-10-12T06:15:54;11.18;;;5.00;;
40503;SDS011;42292;49.048;8.374;2022-10-12T06:18:20;9.77;;;4.50;;
40503;SDS011;42292;49.048;8.374;2022-10-12T06:20:51;12.88;;;4.03;;
40503;SDS011;42292;49.048;8.374;2022-10-12T06:23:18;15.52;;;4.97;;
40503;SDS011;42292;49.048;8.374;2022-10-12T06:25:45;13.27;;;5.47;;
40503;SDS011;42292;49.048;8.374;2022-10-12T06:28:12;11.57;;;4.40;;
40503;SDS011;42292;49.048;8.374;2022-10-12T06:30:38;11.55;;;4.32;;
40503;SDS011;42292;49.048;8.374;2022-10-12T06:33:04;11.00;;;4.90;;
40503;SDS011;42292;49.048;8.374;2022-10-12T06:35:29;12.93;;;4.47;;
40503;SDS011;42292;49.048;8.374;2022-10-12T06:37:55;11.57;;;4.07;;
40503;SDS011;42292;49.048;8.374;2022-10-12T06:40:21;11.45;;;4.57;;
40503;SDS011;42292;49.048;8.374;2022-10-12T06:42:47;14.27;;;4.93;;
40503;SDS011;42292;49.048;8.374;2022-10-12T06:45:13;10.70;;;4.47;;
40503;SDS011;42292;49.048;8.374;2022-10-12T06:47:44;10.25;;;4.88;;
40503;SDS011;42292;49.048;8.374;2022-10-12T06:50:12;10.50;;;4.90;;
40503;SDS011;42292;49.048;8.374;2022-10-12T06:52:37;10.27;;;5.23;;
40503;SDS011;42292;49.048;8.374;2022-10-12T06:55:05;11.05;;;4.35;;
40503;SDS011;42292;49.048;8.374;2022-10-12T06:57:31;13.73;;;5.30;;
40503;SDS011;42292;49.048;8.374;2022-10-12T06:59:57;9.05;;;4.47;;
40503;SDS011;42292;49.048;8.374;2022-10-12T07:02:23;10.70;;;5.07;;
40503;SDS011;42292;49.048;8.374;2022-10-12T07:04:49;11.50;;;4.63;;
40503;SDS011;42292;49.048;8.374;2022-10-12T07:07:15;8.85;;;4.05;;
40503;SDS011;42292;49.048;8.374;2022-10-12T07:09:41;10.98;;;4.80;;
40503;SDS011;42292;49.048;8.374;2022-10-12T07:12:09;12.13;;;4.80;;
40503;SDS011;42292;49.048;8.374;2022-10-12T07:14:38;12.27;;;4.73;;
40503;SDS011;42292;49.048;8.374;2022-10-12T07:17:08;8.80;;;4.10;;
40503;SDS011;42292;49.048;8.374;2022-10-12T07:19:33;10.27;;;4.45;;
40503;SDS011;42292;49.048;8.374;2022-10-12T07:22:01;11.40;;;4.93;;
40503;SDS011;42292;49.048;8.374;2022-10-12T07:24:27;10.48;;;4.63;;
40503;SDS011;42292;49.048;8.374;2022-10-12T07:27:00;10.75;;;4.93;;
40503;SDS011;42292;49.048;8.374;2022-10-12T07:29:30;12.23;;;4.90;;
40503;SDS011;42292;49.048;8.374;2022-10-12T07:31:56;8.33;;;4.50;;
40503;SDS011;42292;49.048;8.374;2022-10-12T07:34:23;11.63;;;5.03;;
40503;SDS011;42292;49.048;8.374;2022-10-12T07:36:54;11.82;;;5.22;;
40503;SDS011;42292;49.048;8.374;2022-10-12T07:39:21;9.07;;;4.82;;
40503;SDS011;42292;49.048;8.374;2022-10-12T07:41:49;12.23;;;5.13;;
40503;SDS011;42292;49.048;8.374;2022-10-12T07:44:16;11.43;;;4.95;;
40503;SDS011;42292;49.048;8.374;2022-10-12T07:46:43;10.95;;;5.05;;
40503;SDS011;42292;49.048;8.374;2022-10-12T07:49:10;11.20;;;5.40;;
40503;SDS011;42292;49.048;8.374;2022-10-12T07:51:36;15.15;;;5.93;;
40503;SDS011;42292;49.048;8.374;2022-10-12T07:54:05;12.32;;;5.88;;
40503;SDS011;42292;49.048;8.374;2022-10-12T07:56:31;11.80;;;5.93;;
40503;SDS011;42292;49.048;8.374;2022-10-12T07:58:59;13.68;;;5.80;;
40503;SDS011;42292;49.048;8.374;2022-10-12T08:01:26;13.10;;;5.40;;
40503;SDS011;42292;49.048;8.374;2022-10-12T08:03:53;15.50;;;5.82;;
40503;SDS011;42292;49.048;8.374;2022-10-12T08:06:21;10.55;;;5.57;;
40503;SDS011;42292;49.048;8.374;2022-10-12T08:08:48;12.55;;;5.63;;
40503;SDS011;42292;49.048;8.374;2022-10-12T08:11:15;14.18;;;6.13;;
40503;SDS011;42292;49.048;8.374;2022-10-12T08:13:41;12.35;;;5.65;;
40503;SDS011;42292;49.048;8.374;2022-10-12T08:16:09;12.45;;;6.25;;
40503;SDS011;42292;49.048;8.374;2022-10-12T08:18:44;10.65;;;5.70;;
40503;SDS011;42292;49.048;8.374;2022-10-12T08:21:11;17.75;;;7.55;;
40503;SDS011;42292;49.048;8.374;2022-10-12T08:23:37;18.70;;;9.05;;
40503;SDS011;42292;49.048;8.374;2022-10-12T08:26:03;18.58;;;7.80;;
40503;SDS011;42292;49.048;8.374;2022-10-12T08:28:30;15.55;;;8.05;;
40503;SDS011;42292;49.048;8.374;2022-10-12T08:30:58;17.63;;;8.27;;
40503;SDS011;42292;49.048;8.374;2022-10-12T08:33:26;14.85;;;7.95;;
40503;SDS011;42292;49.048;8.374;2022-10-12T08:35:55;16.83;;;8.40;;
40503;SDS011;42292;49.048;8.374;2022-10-12T08:38:20;18.85;;;7.70;;
40503;SDS011;42292;49.048;8.374;2022-10-12T08:40:50;15.10;;;8.10;;
40503;SDS011;42292;49.048;8.374;2022-10-12T08:46:02;16.42;;;9.70;;
40503;SDS011;42292;49.048;8.374;2022-10-12T08:48:43;12.93;;;7.60;;
40503;SDS011;42292;49.048;8.374;2022-10-12T08:51:12;13.27;;;7.78;;
40503;SDS011;42292;49.048;8.374;2022-10-12T08:56:29;13.77;;;7.78;;
40503;SDS011;42292;49.048;8.374;2022-10-12T08:58:54;13.27;;;7.82;;
40503;SDS011;42292;49.048;8.374;2022-10-12T09:01:25;14.43;;;8.23;;
40503;SDS011;42292;49.048;8.374;2022-10-12T09:12:41;13.52;;;7.55;;
40503;SDS011;42292;49.048;8.374;2022-10-12T09:18:15;13.70;;;8.02;;
40503;SDS011;42292;49.048;8.374;2022-10-12T09:20:48;14.38;;;8.35;;
40503;SDS011;42292;49.048;8.374;2022-10-12T09:25:55;13.98;;;8.50;;
40503;SDS011;42292;49.048;8.374;2022-10-12T09:33:45;14.40;;;8.67;;
40503;SDS011;42292;49.048;8.374;2022-10-12T09:36:19;13.13;;;8.35;;
40503;SDS011;42292;49.048;8.374;2022-10-12T09:38:50;12.30;;;8.32;;
40503;SDS011;42292;49.048;8.374;2022-10-12T09:41:21;11.35;;;7.95;;
40503;SDS011;42292;49.048;8.374;2022-10-12T09:43:52;16.90;;;8.63;;
40503;SDS011;42292;49.048;8.374;2022-10-12T09:46:28;13.05;;;8.13;;
40503;SDS011;42292;49.048;8.374;2022-10-12T09:49:06;13.27;;;7.65;;
40503;SDS011;42292;49.048;8.374;2022-10-12T09:51:32;15.48;;;7.63;;
40503;SDS011;42292;49.048;8.374;2022-10-12T09:54:01;16.23;;;8.15;;
40503;SDS011;42292;49.048;8.374;2022-10-12T10:04:36;13.35;;;7.45;;
40503;SDS011;42292;49.048;8.374;2022-10-12T10:12:39;14.23;;;8.30;;
40503;SDS011;42292;49.048;8.374;2022-10-12T10:18:03;14.23;;;7.82;;
40503;SDS011;42292;49.048;8.374;2022-10-12T10:20:33;14.20;;;8.65;;
40503;SDS011;42292;49.048;8.374;2022-10-12T10:23:19;14.93;;;8.27;;
40503;SDS011;42292;49.048;8.374;2022-10-12T10:26:01;13.32;;;7.60;;
40503;SDS011;42292;49.048;8.374;2022-10-12T10:28:39;15.43;;;8.07;;
40503;SDS011;42292;49.048;8.374;2022-10-12T10:33:40;16.30;;;8.30;;
40503;SDS011;42292;49.048;8.374;2022-10-12T10:36:22;14.88;;;8.57;;
40503;SDS011;42292;49.048;8.374;2022-10-12T10:38:55;11.88;;;8.18;;
40503;SDS011;42292;49.048;8.374;2022-10-12T10:41:30;13.23;;;8.75;;
40503;SDS011;42292;49.048;8.374;2022-10-12T10:43:56;14.63;;;9.53;;
40503;SDS011;42292;49.048;8.374;2022-10-12T10:46:25;16.60;;;9.65;;
40503;SDS011;42292;49.048;8.374;2022-10-12T10:49:05;14.73;;;9.13;;
40503;SDS011;42292;49.048;8.374;2022-10-12T10:56:46;11.65;;;7.55;;
40503;SDS011;42292;49.048;8.374;2022-10-12T10:59:17;14.43;;;8.05;;
40503;SDS011;42292;49.048;8.374;2022-10-12T11:01:55;14.63;;;7.60;;
40503;SDS011;42292;49.048;8.374;2022-10-12T11:04:34;13.52;;;8.10;;
40503;SDS011;42292;49.048;8.374;2022-10-12T11:07:14;14.53;;;8.37;;
40503;SDS011;42292;49.048;8.374;2022-10-12T11:09:45;15.73;;;8.88;;
40503;SDS011;42292;49.048;8.374;2022-10-12T11:12:17;13.32;;;8.30;;
40503;SDS011;42292;49.048;8.374;2022-10-12T11:14:57;13.02;;;8.15;;
40503;SDS011;42292;49.048;8.374;2022-10-12T11:17:40;13.88;;;8.32;;
40503;SDS011;42292;49.048;8.374;2022-10-12T11:25:40;14.02;;;8.50;;
40503;SDS011;42292;49.048;8.374;2022-10-12T11:28:13;13.45;;;8.43;;
40503;SDS011;42292;49.048;8.374;2022-10-12T11:30:42;13.25;;;8.05;;
40503;SDS011;42292;49.048;8.374;2022-10-12T11:33:20;14.00;;;8.35;;
40503;SDS011;42292;49.048;8.374;2022-10-12T11:35:54;10.77;;;7.03;;
40503;SDS011;42292;49.048;8.374;2022-10-12T11:40:54;13.65;;;6.90;;
40503;SDS011;42292;49.048;8.374;2022-10-12T11:43:43;13.85;;;6.70;;
40503;SDS011;42292;49.048;8.374;2022-10-12T11:46:39;10.83;;;6.10;;
40503;SDS011;42292;49.048;8.374;2022-10-12T11:49:24;12.52;;;5.90;;
40503;SDS011;42292;49.048;8.374;2022-10-12T11:52:17;11.18;;;6.75;;
40503;SDS011;42292;49.048;8.374;2022-10-12T11:54:59;11.47;;;6.43;;
40503;SDS011;42292;49.048;8.374;2022-10-12T11:57:49;9.00;;;5.07;;
40503;SDS011;42292;49.048;8.374;2022-10-12T12:03:15;9.52;;;5.63;;
40503;SDS011;42292;49.048;8.374;2022-10-12T12:09:40;10.68;;;6.10;;
40503;SDS011;42292;49.048;8.374;2022-10-12T12:12:08;10.88;;;6.40;;
40503;SDS011;42292;49.048;8.374;2022-10-12T12:14:48;9.15;;;5.80;;
40503;SDS011;42292;49.048;8.374;2022-10-12T12:22:18;10.80;;;5.10;;
40503;SDS011;42292;49.048;8.374;2022-10-12T12:25:03;11.63;;;6.03;;
40503;SDS011;42292;49.048;8.374;2022-10-12T12:38:02;7.38;;;5.18;;
40503;SDS011;42292;49.048;8.374;2022-10-12T12:40:40;10.13;;;6.00;;
40503;SDS011;42292;49.048;8.374;2022-10-12T12:51:32;9.13;;;5.50;;
40503;SDS011;42292;49.048;8.374;2022-10-12T12:53:58;8.50;;;5.15;;
40503;SDS011;42292;49.048;8.374;2022-10-12T13:10:53;6.45;;;4.30;;
40503;SDS011;42292;49.048;8.374;2022-10-12T13:13:47;8.88;;;4.60;;
40503;SDS011;42292;49.048;8.374;2022-10-12T13:16:47;10.25;;;5.00;;
40503;SDS011;42292;49.048;8.374;2022-10-12T13:19:19;8.35;;;4.85;;
40503;SDS011;42292;49.048;8.374;2022-10-12T13:21:46;9.10;;;4.63;;
40503;SDS011;42292;49.048;8.374;2022-10-12T13:24:16;9.90;;;5.00;;
40503;SDS011;42292;49.048;8.374;2022-10-12T13:26:59;9.20;;;4.82;;
40503;SDS011;42292;49.048;8.374;2022-10-12T13:32:28;7.78;;;4.32;;
40503;SDS011;42292;49.048;8.374;2022-10-12T13:35:37;6.28;;;4.25;;
40503;SDS011;42292;49.048;8.374;2022-10-12T13:38:16;7.90;;;4.23;;
40503;SDS011;42292;49.048;8.374;2022-10-12T13:40:48;7.63;;;4.78;;
40503;SDS011;42292;49.048;8.374;2022-10-12T13:43:27;8.90;;;4.20;;
40503;SDS011;42292;49.048;8.374;2022-10-12T13:46:00;10.73;;;4.53;;
40503;SDS011;42292;49.048;8.374;2022-10-12T13:48:27;9.68;;;4.18;;
40503;SDS011;42292;49.048;8.374;2022-10-12T13:50:54;7.55;;;4.13;;
40503;SDS011;42292;49.048;8.374;2022-10-12T13:53:32;9.57;;;4.15;;
40503;SDS011;42292;49.048;8.374;2022-10-12T13:56:14;10.27;;;4.30;;
40503;SDS011;42292;49.048;8.374;2022-10-12T13:58:43;10.48;;;4.70;;
40503;SDS011;42292;49.048;8.374;2022-10-12T14:01:11;7.70;;;4.50;;
40503;SDS011;42292;49.048;8.374;2022-10-12T14:03:42;10.30;;;4.47;;
40503;SDS011;42292;49.048;8.374;2022-10-12T14:08:58;7.28;;;3.85;;
40503;SDS011;42292;49.048;8.374;2022-10-12T14:11:31;8.40;;;4.57;;
40503;SDS011;42292;49.048;8.374;2022-10-12T14:14:00;8.07;;;4.20;;
40503;SDS011;42292;49.048;8.374;2022-10-12T14:16:27;9.65;;;4.60;;
40503;SDS011;42292;49.048;8.374;2022-10-12T14:18:52;8.02;;;4.30;;
40503;SDS011;42292;49.048;8.374;2022-10-12T14:23:51;9.07;;;4.78;;
40503;SDS011;42292;49.048;8.374;2022-10-12T14:31:52;9.23;;;4.88;;
40503;SDS011;42292;49.048;8.374;2022-10-12T14:39:51;10.33;;;4.60;;
40503;SDS011;42292;49.048;8.374;2022-10-12T14:42:28;10.38;;;4.32;;
40503;SDS011;42292;49.048;8.374;2022-10-12T14:44:58;8.82;;;4.25;;
40503;SDS011;42292;49.048;8.374;2022-10-12T14:47:29;7.45;;;4.10;;
40503;SDS011;42292;49.048;8.374;2022-10-12T14:49:59;9.55;;;4.65;;
40503;SDS011;42292;49.048;8.374;2022-10-12T14:55:18;7.32;;;4.18;;
40503;SDS011;42292;49.048;8.374;2022-10-12T14:57:44;10.23;;;4.47;;
40503;SDS011;42292;49.048;8.374;2022-10-12T15:00:18;7.65;;;4.00;;
40503;SDS011;42292;49.048;8.374;2022-10-12T15:02:45;10.93;;;4.88;;
40503;SDS011;42292;49.048;8.374;2022-10-12T15:05:17;7.93;;;4.43;;
40503;SDS011;42292;49.048;8.374;2022-10-12T15:07:46;12.25;;;4.95;;
40503;SDS011;42292;49.048;8.374;2022-10-12T15:10:14;7.10;;;4.23;;
40503;SDS011;42292;49.048;8.374;2022-10-12T15:12:41;8.63;;;4.57;;
40503;SDS011;42292;49.048;8.374;2022-10-12T15:15:17;8.65;;;4.10;;
40503;SDS011;42292;49.048;8.374;2022-10-12T15:17:55;10.15;;;4.35;;
40503;SDS011;42292;49.048;8.374;2022-10-12T15:20:21;9.18;;;4.72;;
40503;SDS011;42292;49.048;8.374;2022-10-12T15:22:50;10.10;;;5.30;;
40503;SDS011;42292;49.048;8.374;2022-10-12T15:25:20;11.55;;;5.10;;
40503;SDS011;42292;49.048;8.374;2022-10-12T15:27:49;11.10;;;5.27;;
40503;SDS011;42292;49.048;8.374;2022-10-12T15:30:19;9.60;;;4.67;;
40503;SDS011;42292;49.048;8.374;2022-10-12T15:32:46;11.53;;;4.57;;
40503;SDS011;42292;49.048;8.374;2022-10-12T15:35:22;7.43;;;4.82;;
40503;SDS011;42292;49.048;8.374;2022-10-12T15:37:51;10.50;;;4.63;;
40503;SDS011;42292;49.048;8.374;2022-10-12T15:40:20;10.90;;;4.78;;
40503;SDS011;42292;49.048;8.374;2022-10-12T15:42:48;10.63;;;5.43;;
40503;SDS011;42292;49.048;8.374;2022-10-12T15:47:54;9.05;;;4.70;;
40503;SDS011;42292;49.048;8.374;2022-10-12T15:50:24;11.18;;;5.30;;
40503;SDS011;42292;49.048;8.374;2022-10-12T15:52:53;10.50;;;5.10;;
40503;SDS011;42292;49.048;8.374;2022-10-12T15:55:23;14.43;;;6.38;;
40503;SDS011;42292;49.048;8.374;2022-10-12T15:57:55;14.33;;;6.57;;
40503;SDS011;42292;49.048;8.374;2022-10-12T16:00:24;11.25;;;6.05;;
40503;SDS011;42292;49.048;8.374;2022-10-12T16:02:52;14.82;;;6.05;;
40503;SDS011;42292;49.048;8.374;2022-10-12T16:05:25;12.55;;;6.07;;
40503;SDS011;42292;49.048;8.374;2022-10-12T16:07:59;11.98;;;7.28;;
40503;SDS011;42292;49.048;8.374;2022-10-12T16:10:27;9.38;;;6.40;;
40503;SDS011;42292;49.048;8.374;2022-10-12T16:12:55;15.43;;;11.90;;
40503;SDS011;42292;49.048;8.374;2022-10-12T16:15:23;15.77;;;9.05;;
40503;SDS011;42292;49.048;8.374;2022-10-12T16:17:51;11.15;;;6.28;;
40503;SDS011;42292;49.048;8.374;2022-10-12T16:20:19;11.35;;;5.70;;
40503;SDS011;42292;49.048;8.374;2022-10-12T16:22:45;12.55;;;6.70;;
40503;SDS011;42292;49.048;8.374;2022-10-12T16:25:11;10.82;;;5.90;;
40503;SDS011;42292;49.048;8.374;2022-10-12T16:27:41;12.05;;;6.70;;
40503;SDS011;42292;49.048;8.374;2022-10-12T16:30:11;12.27;;;6.67;;
40503;SDS011;42292;49.048;8.374;2022-10-12T16:32:40;14.68;;;6.80;;
40503;SDS011;42292;49.048;8.374;2022-10-12T16:35:05;10.38;;;6.40;;
40503;SDS011;42292;49.048;8.374;2022-10-12T16:37:34;17.55;;;11.13;;
40503;SDS011;42292;49.048;8.374;2022-10-12T16:40:02;13.18;;;8.77;;
40503;SDS011;42292;49.048;8.374;2022-10-12T16:42:32;12.32;;;6.75;;
40503;SDS011;42292;49.048;8.374;2022-10-12T16:45:00;14.02;;;6.57;;
40503;SDS011;42292;49.048;8.374;2022-10-12T16:47:26;14.88;;;7.05;;
40503;SDS011;42292;49.048;8.374;2022-10-12T16:49:54;16.10;;;6.45;;
40503;SDS011;42292;49.048;8.374;2022-10-12T16:52:22;17.35;;;7.85;;
40503;SDS011;42292;49.048;8.374;2022-10-12T16:54:51;15.52;;;7.18;;
40503;SDS011;42292;49.048;8.374;2022-10-12T16:57:20;18.42;;;7.25;;
40503;SDS011;42292;49.048;8.374;2022-10-12T16:59:46;19.77;;;8.10;;
40503;SDS011;42292;49.048;8.374;2022-10-12T17:02:13;18.75;;;7.65;;
40503;SDS011;42292;49.048;8.374;2022-10-12T17:04:40;20.60;;;8.25;;
40503;SDS011;42292;49.048;8.374;2022-10-12T17:07:06;21.57;;;8.13;;
40503;SDS011;42292;49.048;8.374;2022-10-12T17:09:33;13.18;;;7.40;;
40503;SDS011;42292;49.048;8.374;2022-10-12T17:12:01;13.20;;;7.35;;
40503;SDS011;42292;49.048;8.374;2022-10-12T17:14:27;14.50;;;8.40;;
40503;SDS011;42292;49.048;8.374;2022-10-12T17:16:54;13.52;;;8.55;;
40503;SDS011;42292;49.048;8.374;2022-10-12T17:19:28;17.60;;;8.43;;
40503;SDS011;42292;49.048;8.374;2022-10-12T17:21:58;20.83;;;9.88;;
40503;SDS011;42292;49.048;8.374;2022-10-12T17:24:28;24.42;;;10.65;;
40503;SDS011;42292;49.048;8.374;2022-10-12T17:26:55;35.75;;;11.70;;
40503;SDS011;42292;49.048;8.374;2022-10-12T17:29:25;39.77;;;11.83;;
40503;SDS011;42292;49.048;8.374;2022-10-12T17:31:54;34.78;;;10.50;;
40503;SDS011;42292;49.048;8.374;2022-10-12T17:36:53;20.00;;;10.33;;